createdAt,value
2023-05-24T00:00:12.644Z,1.42
2023-05-24T00:02:41.959Z,1.75
2023-05-24T00:05:10.817Z,1.73
2023-05-24T00:07:38.158Z,1.45
2023-05-24T00:10:05.650Z,1.50
2023-05-24T00:12:32.684Z,1.20
2023-05-24T00:14:59.450Z,1.50
2023-05-24T00:17:25.987Z,1.13
2023-05-24T00:19:52.543Z,1.60
2023-05-24T00:22:21.050Z,1.33
2023-05-24T00:24:48.389Z,1.60
2023-05-24T00:27:15.482Z,1.33
2023-05-24T00:29:42.053Z,1.35
2023-05-24T00:32:08.722Z,1.38
2023-05-24T00:34:35.607Z,1.42
2023-05-24T00:37:02.009Z,1.30
2023-05-24T00:39:28.397Z,1.38
2023-05-24T00:41:54.828Z,1.58
2023-05-24T00:44:21.244Z,1.17
2023-05-24T00:46:47.709Z,1.58
2023-05-24T00:49:14.198Z,1.30
2023-05-24T00:51:40.756Z,1.40
2023-05-24T00:54:07.347Z,1.27
2023-05-24T00:56:34.203Z,1.50
2023-05-24T00:59:01.320Z,0.98
2023-05-24T01:01:30.986Z,1.48
2023-05-24T01:03:59.464Z,1.42
2023-05-24T01:06:27.984Z,1.30
2023-05-24T01:11:58.100Z,1.30
2023-05-24T01:14:59.302Z,1.10
2023-05-24T01:17:48.387Z,1.08
2023-05-24T01:20:17.750Z,1.17
2023-05-24T01:23:02.925Z,1.20
2023-05-24T01:25:46.900Z,1.42
2023-05-24T01:28:15.142Z,1.23
2023-05-24T01:30:42.794Z,1.20
2023-05-24T01:33:09.876Z,1.10
2023-05-24T01:35:40.380Z,1.00
2023-05-24T01:38:07.397Z,1.25
2023-05-24T01:40:34.095Z,1.05
2023-05-24T01:43:39.218Z,1.30
2023-05-24T01:46:19.956Z,1.08
2023-05-24T01:48:58.183Z,1.27
2023-05-24T01:51:28.569Z,1.20
2023-05-24T01:53:58.216Z,0.85
2023-05-24T01:56:26.663Z,1.40
2023-05-24T01:58:54.761Z,1.17
2023-05-24T02:01:21.495Z,1.20
2023-05-24T02:03:48.308Z,1.02
2023-05-24T02:06:14.940Z,1.23
2023-05-24T02:08:41.383Z,0.90
2023-05-24T02:11:07.880Z,1.00
2023-05-24T02:13:34.324Z,1.10
2023-05-24T02:16:00.787Z,1.27
2023-05-24T02:18:27.189Z,0.90
2023-05-24T02:20:53.685Z,1.23
2023-05-24T02:23:20.194Z,1.10
2023-05-24T02:25:46.761Z,1.20
2023-05-24T02:28:13.199Z,1.20
2023-05-24T02:30:39.934Z,1.10
2023-05-24T02:33:06.577Z,0.90
2023-05-24T02:35:34.358Z,1.00
2023-05-24T02:38:01.547Z,1.25
2023-05-24T02:40:28.058Z,1.17
2023-05-24T02:42:54.559Z,1.70
2023-05-24T02:45:21.014Z,1.20
2023-05-24T02:47:47.456Z,1.20
2023-05-24T02:50:13.905Z,1.30
2023-05-24T02:52:40.420Z,1.48
2023-05-24T02:55:07.372Z,1.00
2023-05-24T02:57:37.850Z,1.23
2023-05-24T03:02:34.225Z,1.05
2023-05-24T03:05:00.832Z,1.00
2023-05-24T03:07:27.274Z,1.02
2023-05-24T03:09:53.733Z,1.30
2023-05-24T03:12:20.177Z,1.13
2023-05-24T03:14:46.611Z,1.10
2023-05-24T03:17:12.996Z,1.00
2023-05-24T03:19:39.475Z,1.17
2023-05-24T03:22:06.141Z,1.10
2023-05-24T03:24:33.471Z,1.10
2023-05-24T03:27:00.947Z,1.10
2023-05-24T03:29:27.372Z,1.33
2023-05-24T03:31:53.777Z,1.08
2023-05-24T03:34:20.397Z,1.02
2023-05-24T03:36:46.872Z,1.10
2023-05-24T03:39:13.298Z,1.20
2023-05-24T03:41:39.669Z,1.10
2023-05-24T03:44:06.136Z,1.00
2023-05-24T03:46:32.719Z,1.10
2023-05-24T03:48:59.127Z,1.05
2023-05-24T03:51:29.396Z,0.90
2023-05-24T03:53:59.230Z,1.00
2023-05-24T03:56:26.605Z,1.10
2023-05-24T03:58:53.206Z,1.30
2023-05-24T04:01:32.820Z,1.42
2023-05-24T04:04:01.416Z,1.00
2023-05-24T04:06:30.783Z,1.00
2023-05-24T04:09:00.804Z,0.80
2023-05-24T04:11:28.508Z,0.98
2023-05-24T04:13:55.956Z,1.20
2023-05-24T04:16:27.386Z,1.15
2023-05-24T04:18:55.274Z,0.95
2023-05-24T04:21:22.614Z,1.20
2023-05-24T04:23:49.115Z,1.33
2023-05-24T04:26:15.702Z,1.13
2023-05-24T04:28:42.365Z,1.02
2023-05-24T04:31:10.050Z,1.08
2023-05-24T04:33:36.895Z,1.00
2023-05-24T04:36:03.433Z,1.08
2023-05-24T04:38:32.158Z,0.98
2023-05-24T04:40:59.455Z,1.10
2023-05-24T04:43:29.152Z,1.20
2023-05-24T04:45:55.887Z,1.13
2023-05-24T04:48:24.431Z,1.50
2023-05-24T04:50:52.626Z,1.17
2023-05-24T04:53:20.285Z,0.90
2023-05-24T04:55:47.620Z,1.20
2023-05-24T04:58:14.326Z,1.40
2023-05-24T05:00:40.935Z,1.25
2023-05-24T05:03:08.499Z,1.00
2023-05-24T05:05:35.397Z,1.17
2023-05-24T05:08:03.001Z,1.02
2023-05-24T05:10:29.724Z,1.40
2023-05-24T05:12:56.196Z,1.55
2023-05-24T05:15:23.728Z,1.35
2023-05-24T05:17:50.526Z,1.05
2023-05-24T05:20:17.056Z,1.27
2023-05-24T05:22:47.620Z,1.00
2023-05-24T05:27:40.527Z,1.15
2023-05-24T05:30:08.318Z,1.02
2023-05-24T05:32:36.277Z,1.15
2023-05-24T05:35:03.063Z,1.10
2023-05-24T05:37:29.920Z,1.08
2023-05-24T05:39:56.347Z,1.52
2023-05-24T05:42:22.753Z,1.20
2023-05-24T05:44:49.268Z,1.10
2023-05-24T05:47:15.715Z,1.20
2023-05-24T05:49:42.191Z,1.23
2023-05-24T05:52:08.627Z,1.13
2023-05-24T05:54:35.768Z,1.38
2023-05-24T05:57:02.217Z,1.40
2023-05-24T05:59:28.643Z,1.20
2023-05-24T06:01:55.077Z,1.10
2023-05-24T06:04:21.571Z,1.00
2023-05-24T06:06:49.878Z,1.50
2023-05-24T06:09:17.057Z,1.98
2023-05-24T06:11:44.942Z,1.20
2023-05-24T06:14:13.323Z,1.40
2023-05-24T06:16:43.490Z,1.60
2023-05-24T06:19:10.399Z,1.23
2023-05-24T06:21:37.343Z,1.27
2023-05-24T06:24:04.235Z,1.38
2023-05-24T06:26:31.012Z,1.75
2023-05-24T06:28:57.435Z,1.05
2023-05-24T06:31:23.917Z,1.35
2023-05-24T06:34:02.619Z,1.17
2023-05-24T06:36:33.930Z,1.42
2023-05-24T06:39:00.298Z,1.10
2023-05-24T06:41:27.029Z,1.48
2023-05-24T06:43:53.408Z,1.13
2023-05-24T06:46:19.864Z,1.20
2023-05-24T06:48:46.271Z,1.33
2023-05-24T06:51:12.723Z,1.20
2023-05-24T06:53:39.146Z,1.40
2023-05-24T06:56:05.735Z,1.70
2023-05-24T06:58:32.191Z,1.38
2023-05-24T07:00:58.628Z,1.20
2023-05-24T07:03:25.065Z,1.35
2023-05-24T07:05:51.529Z,1.10
2023-05-24T07:08:18.057Z,1.20
2023-05-24T07:10:45.258Z,1.30
2023-05-24T07:13:13.660Z,1.25
2023-05-24T07:15:42.196Z,1.30
2023-05-24T07:18:08.943Z,1.63
2023-05-24T07:20:35.459Z,1.55
2023-05-24T07:23:02.034Z,1.10
2023-05-24T07:25:28.546Z,1.35
2023-05-24T07:27:55.094Z,1.30
2023-05-24T07:30:31.808Z,0.98
2023-05-24T07:32:59.714Z,1.60
2023-05-24T07:35:26.300Z,1.30
2023-05-24T07:37:52.681Z,1.20
2023-05-24T07:40:19.115Z,1.50
2023-05-24T07:42:47.402Z,1.35
2023-05-24T07:45:14.162Z,1.17
2023-05-24T07:47:40.804Z,1.23
2023-05-24T07:50:07.586Z,1.30
2023-05-24T07:52:34.057Z,1.20
2023-05-24T07:55:00.738Z,1.05
2023-05-24T07:57:27.502Z,1.83
2023-05-24T07:59:53.896Z,1.20
2023-05-24T08:02:20.366Z,1.55
2023-05-24T08:04:47.364Z,1.13
2023-05-24T08:07:14.463Z,1.45
2023-05-24T08:09:41.962Z,1.45
2023-05-24T08:12:08.497Z,1.20
2023-05-24T08:14:34.993Z,1.30
2023-05-24T08:17:01.831Z,1.25
2023-05-24T08:19:28.646Z,1.25
2023-05-24T08:21:57.231Z,1.38
2023-05-24T08:24:23.965Z,1.85
2023-05-24T08:26:51.777Z,1.25
2023-05-24T08:29:18.630Z,1.30
2023-05-24T08:31:45.188Z,1.17
2023-05-24T08:34:12.783Z,1.50
2023-05-24T08:36:43.152Z,1.08
2023-05-24T08:39:10.239Z,1.50
2023-05-24T08:41:39.268Z,1.52
2023-05-24T08:44:07.365Z,1.40
2023-05-24T08:46:37.421Z,1.40
2023-05-24T08:49:04.402Z,1.52
2023-05-24T08:51:31.934Z,1.30
2023-05-24T08:54:03.817Z,1.35
2023-05-24T08:56:30.868Z,1.23
2023-05-24T08:58:57.360Z,1.60
2023-05-24T09:01:25.311Z,1.40
2023-05-24T09:03:53.972Z,1.30
2023-05-24T09:06:21.416Z,1.63
2023-05-24T09:08:52.386Z,1.48
2023-05-24T09:11:19.494Z,1.15
2023-05-24T09:13:46.022Z,1.55
2023-05-24T09:16:12.740Z,1.50
2023-05-24T09:18:42.654Z,1.20
2023-05-24T09:21:10.886Z,1.27
2023-05-24T09:23:37.983Z,1.75
2023-05-24T09:26:11.281Z,1.00
2023-05-24T09:28:38.451Z,1.10
2023-05-24T09:31:07.331Z,1.25
2023-05-24T09:33:35.335Z,1.55
2023-05-24T09:36:04.441Z,1.55
2023-05-24T09:38:31.108Z,1.30
2023-05-24T09:41:03.044Z,1.50
2023-05-24T09:43:31.651Z,1.42
2023-05-24T09:45:59.981Z,1.40
2023-05-24T09:48:26.606Z,1.40
2023-05-24T09:51:13.226Z,1.35
2023-05-24T09:53:44.629Z,1.60
2023-05-24T09:56:11.139Z,1.40
2023-05-24T09:58:39.152Z,1.13
2023-05-24T10:01:07.946Z,1.40
2023-05-24T10:03:35.704Z,1.77
2023-05-24T10:06:04.970Z,1.17
2023-05-24T10:08:33.678Z,1.10
2023-05-24T10:11:02.727Z,1.33
2023-05-24T10:13:29.277Z,1.05
2023-05-24T10:15:56.093Z,2.08
2023-05-24T10:18:22.814Z,1.30
2023-05-24T10:20:51.445Z,1.65
2023-05-24T10:23:21.866Z,1.52
2023-05-24T10:25:55.765Z,1.52
2023-05-24T10:28:24.810Z,1.27
2023-05-24T10:31:01.837Z,2.30
2023-05-24T10:33:30.162Z,1.33
2023-05-24T10:35:57.338Z,1.23
2023-05-24T10:38:24.990Z,1.42
2023-05-24T10:40:52.034Z,1.25
2023-05-24T10:43:18.888Z,1.38
2023-05-24T10:45:49.611Z,1.55
2023-05-24T10:48:16.903Z,1.65
2023-05-24T10:50:44.665Z,1.52
2023-05-24T10:53:19.206Z,1.25
2023-05-24T10:55:55.526Z,1.10
2023-05-24T10:58:46.262Z,1.55
2023-05-24T11:01:32.683Z,1.20
2023-05-24T11:04:18.922Z,1.45
2023-05-24T11:06:56.908Z,1.52
2023-05-24T11:09:24.436Z,1.10
2023-05-24T11:11:55.638Z,1.85
2023-05-24T11:14:28.555Z,1.33
2023-05-24T11:16:56.049Z,1.45
2023-05-24T11:19:23.829Z,1.45
2023-05-24T11:21:53.410Z,1.20
2023-05-24T11:24:21.717Z,1.60
2023-05-24T11:26:48.261Z,1.70
2023-05-24T11:29:22.192Z,1.40
2023-05-24T11:31:49.596Z,1.40
2023-05-24T11:34:17.338Z,1.15
2023-05-24T11:36:43.949Z,1.45
2023-05-24T11:39:10.603Z,1.48
2023-05-24T11:41:40.656Z,1.80
2023-05-24T11:44:08.518Z,1.50
2023-05-24T11:46:35.390Z,1.27
2023-05-24T11:49:02.199Z,1.35
2023-05-24T11:51:33.816Z,1.27
2023-05-24T11:54:01.044Z,1.27
2023-05-24T11:56:32.454Z,1.60
2023-05-24T11:59:09.096Z,1.60
2023-05-24T12:01:35.736Z,1.70
2023-05-24T12:04:02.204Z,1.80
2023-05-24T12:06:36.952Z,1.70
2023-05-24T12:09:08.009Z,2.08
2023-05-24T12:11:39.491Z,2.17
2023-05-24T12:14:06.158Z,2.00
2023-05-24T12:16:33.277Z,1.90
2023-05-24T12:19:07.194Z,1.52
2023-05-24T12:21:41.666Z,2.00
2023-05-24T12:24:16.773Z,2.30
2023-05-24T12:26:44.766Z,1.70
2023-05-24T12:29:12.374Z,1.73
2023-05-24T12:31:43.905Z,1.90
2023-05-24T12:34:17.672Z,1.80
2023-05-24T12:36:44.301Z,2.00
2023-05-24T12:39:24.614Z,1.80
2023-05-24T12:41:52.831Z,1.52
2023-05-24T12:44:27.103Z,1.70
2023-05-24T12:46:54.795Z,1.65
2023-05-24T12:49:22.788Z,1.65
2023-05-24T12:51:49.674Z,1.90
2023-05-24T12:54:19.229Z,1.60
2023-05-24T12:56:46.104Z,1.60
2023-05-24T12:59:12.715Z,1.80
2023-05-24T13:01:39.465Z,1.83
2023-05-24T13:04:06.161Z,2.20
2023-05-24T13:06:33.097Z,1.83
2023-05-24T13:08:59.614Z,1.80
2023-05-24T13:11:27.614Z,1.80
2023-05-24T13:13:54.253Z,1.63
2023-05-24T13:16:21.535Z,1.77
2023-05-24T13:18:48.037Z,1.80
2023-05-24T13:21:14.636Z,1.65
2023-05-24T13:23:43.126Z,1.70
2023-05-24T13:26:09.597Z,1.90
2023-05-24T13:28:36.474Z,1.67
2023-05-24T13:31:03.778Z,1.75
2023-05-24T13:33:34.340Z,2.67
2023-05-24T13:36:01.719Z,1.35
2023-05-24T13:38:28.503Z,1.63
2023-05-24T13:40:55.208Z,1.48
2023-05-24T13:43:21.788Z,1.80
2023-05-24T13:45:48.692Z,1.83
2023-05-24T13:48:15.304Z,1.88
2023-05-24T13:50:42.211Z,2.53
2023-05-24T13:53:08.867Z,2.72
2023-05-24T13:55:37.708Z,2.10
2023-05-24T13:58:07.780Z,2.47
2023-05-24T14:00:35.904Z,2.22
2023-05-24T14:03:03.678Z,2.45
2023-05-24T14:05:31.246Z,2.28
2023-05-24T14:08:04.032Z,2.67
2023-05-24T14:10:30.602Z,2.13
2023-05-24T14:13:16.157Z,2.13
2023-05-24T14:15:44.798Z,2.28
2023-05-24T14:18:11.472Z,2.15
2023-05-24T14:20:40.037Z,2.10
2023-05-24T14:23:07.737Z,2.20
2023-05-24T14:25:34.260Z,2.15
2023-05-24T14:28:00.922Z,2.00
2023-05-24T14:30:27.413Z,2.22
2023-05-24T14:32:53.904Z,2.20
2023-05-24T14:35:20.764Z,1.88
2023-05-24T14:37:47.225Z,2.35
2023-05-24T14:40:13.878Z,2.13
2023-05-24T14:42:42.031Z,1.98
2023-05-24T14:45:09.603Z,1.80
2023-05-24T14:47:36.064Z,1.85
2023-05-24T14:50:02.568Z,1.80
2023-05-24T14:52:29.018Z,2.08
2023-05-24T14:54:55.475Z,2.15
2023-05-24T14:57:21.880Z,2.10
2023-05-24T14:59:48.355Z,1.88
2023-05-24T15:02:14.797Z,1.80
2023-05-24T15:04:41.350Z,1.60
2023-05-24T15:07:07.761Z,1.70
2023-05-24T15:09:34.334Z,1.73
2023-05-24T15:12:02.877Z,1.75
2023-05-24T15:14:29.300Z,1.98
2023-05-24T15:16:55.802Z,1.90
2023-05-24T15:19:22.569Z,1.50
2023-05-24T15:21:49.028Z,1.42
2023-05-24T15:24:15.385Z,1.63
2023-05-24T15:26:42.365Z,1.50
2023-05-24T15:29:09.403Z,2.10
2023-05-24T15:31:36.439Z,1.65
2023-05-24T15:34:04.836Z,1.52
2023-05-24T15:36:32.414Z,1.83
2023-05-24T15:38:59.693Z,1.80
2023-05-24T15:41:27.246Z,1.70
2023-05-24T15:43:53.960Z,2.08
2023-05-24T15:46:23.287Z,1.83
2023-05-24T15:48:49.757Z,1.60
2023-05-24T15:53:45.593Z,1.52
2023-05-24T15:56:12.157Z,1.70
2023-05-24T15:58:38.597Z,1.60
2023-05-24T16:01:05.416Z,1.50
2023-05-24T16:03:31.953Z,1.75
2023-05-24T16:05:58.564Z,1.73
2023-05-24T16:08:27.723Z,1.70
2023-05-24T16:10:55.118Z,1.73
2023-05-24T16:13:21.703Z,1.65
2023-05-24T16:15:51.566Z,1.40
2023-05-24T16:18:22.261Z,1.60
2023-05-24T16:20:50.057Z,2.35
2023-05-24T16:23:17.274Z,11.10
2023-05-24T16:25:46.779Z,12.20
2023-05-24T16:28:13.266Z,14.50
2023-05-24T16:30:39.726Z,15.30
2023-05-24T16:33:06.378Z,15.10
2023-05-24T16:35:33.773Z,14.60
2023-05-24T16:38:00.342Z,14.70
2023-05-24T16:40:28.390Z,14.75
2023-05-24T16:42:55.227Z,14.27
2023-05-24T16:45:21.659Z,13.85
2023-05-24T16:47:48.260Z,14.02
2023-05-24T16:50:15.096Z,14.35
2023-05-24T16:52:45.135Z,15.48
2023-05-24T16:55:12.421Z,13.27
2023-05-24T16:57:38.917Z,13.68
2023-05-24T17:00:06.037Z,14.50
2023-05-24T17:02:34.728Z,14.27
2023-05-24T17:05:01.352Z,13.20
2023-05-24T17:07:27.963Z,12.93
2023-05-24T17:09:54.393Z,12.68
2023-05-24T17:12:23.706Z,12.48
2023-05-24T17:14:50.140Z,11.93
2023-05-24T17:17:16.935Z,12.20
2023-05-24T17:19:43.403Z,12.55
2023-05-24T17:22:11.213Z,12.23
2023-05-24T17:24:37.824Z,11.00
2023-05-24T17:27:04.989Z,11.40
2023-05-24T17:29:32.699Z,8.30
2023-05-24T17:31:59.110Z,8.45
2023-05-24T17:34:25.913Z,9.45
2023-05-24T17:36:52.334Z,9.68
2023-05-24T17:39:20.034Z,10.00
2023-05-24T17:41:46.734Z,10.65
2023-05-24T17:44:13.273Z,8.55
2023-05-24T17:46:41.438Z,9.23
2023-05-24T17:49:08.365Z,8.68
2023-05-24T17:51:35.034Z,8.85
2023-05-24T17:54:01.421Z,8.85
2023-05-24T17:56:29.039Z,8.68
2023-05-24T17:58:55.589Z,8.02
2023-05-24T18:01:22.141Z,8.50
2023-05-24T18:03:48.734Z,8.10
2023-05-24T18:06:15.286Z,7.13
2023-05-24T18:08:44.341Z,7.97
2023-05-24T18:11:13.043Z,6.95
2023-05-24T18:13:41.734Z,6.38
2023-05-24T18:16:09.858Z,6.80
2023-05-24T18:18:37.661Z,6.20
2023-05-24T18:21:04.901Z,6.82
2023-05-24T18:23:37.279Z,6.28
2023-05-24T18:26:08.377Z,5.78
2023-05-24T18:28:38.543Z,5.68
2023-05-24T18:31:08.302Z,6.07
2023-05-24T18:33:34.967Z,5.40
2023-05-24T18:36:01.636Z,5.22
2023-05-24T18:38:28.067Z,6.15
2023-05-24T18:40:54.492Z,5.35
2023-05-24T18:43:20.914Z,5.35
2023-05-24T18:45:47.289Z,6.43
2023-05-24T18:48:13.749Z,4.95
2023-05-24T18:50:40.856Z,5.20
2023-05-24T18:53:07.243Z,4.78
2023-05-24T18:55:33.650Z,5.53
2023-05-24T18:58:00.010Z,4.80
2023-05-24T19:00:26.851Z,4.72
2023-05-24T19:02:55.336Z,4.63
2023-05-24T19:05:21.844Z,4.72
2023-05-24T19:07:48.234Z,4.43
2023-05-24T19:10:14.760Z,5.18
2023-05-24T19:12:41.228Z,5.00
2023-05-24T19:15:08.062Z,4.85
2023-05-24T19:17:34.722Z,4.22
2023-05-24T19:20:02.088Z,5.03
2023-05-24T19:22:29.095Z,4.15
2023-05-24T19:24:56.256Z,3.58
2023-05-24T19:27:23.041Z,3.85
2023-05-24T19:29:49.433Z,3.92
2023-05-24T19:32:16.632Z,3.92
2023-05-24T19:34:43.124Z,3.78
2023-05-24T19:37:09.679Z,3.38
2023-05-24T19:39:36.978Z,3.88
2023-05-24T19:42:03.979Z,4.03
2023-05-24T19:44:30.884Z,3.22
2023-05-24T19:46:57.358Z,3.35
2023-05-24T19:49:23.793Z,3.47
2023-05-24T19:51:50.293Z,3.33
2023-05-24T19:54:16.758Z,4.43
2023-05-24T19:56:43.209Z,3.58
2023-05-24T19:59:09.638Z,3.10
2023-05-24T20:01:36.189Z,2.70
2023-05-24T20:04:02.770Z,3.47
2023-05-24T20:06:29.576Z,3.80
2023-05-24T20:08:58.670Z,2.65
2023-05-24T20:11:25.899Z,2.72
2023-05-24T20:13:52.667Z,2.95
2023-05-24T20:16:19.439Z,2.97
2023-05-24T20:18:45.946Z,3.17
2023-05-24T20:21:12.971Z,2.70
2023-05-24T20:23:39.392Z,2.88
2023-05-24T20:26:05.979Z,2.90
2023-05-24T20:28:32.548Z,2.42
2023-05-24T20:30:59.100Z,2.70
2023-05-24T20:33:26.015Z,2.47
2023-05-24T20:35:53.945Z,2.55
2023-05-24T20:38:20.758Z,3.15
2023-05-24T20:40:47.110Z,2.55
2023-05-24T20:43:13.556Z,2.50
2023-05-24T20:45:40.108Z,2.70
2023-05-24T20:48:06.833Z,2.25
2023-05-24T20:50:33.351Z,2.13
2023-05-24T20:52:59.783Z,2.40
2023-05-24T20:55:27.062Z,2.38
2023-05-24T20:57:53.804Z,2.65
2023-05-24T21:00:20.278Z,1.85
2023-05-24T21:02:46.855Z,2.67
2023-05-24T21:05:13.392Z,2.33
2023-05-24T21:07:39.811Z,3.05
2023-05-24T21:10:07.591Z,2.20
2023-05-24T21:12:34.089Z,2.63
2023-05-24T21:15:00.550Z,2.33
2023-05-24T21:17:26.989Z,2.50
2023-05-24T21:19:53.461Z,2.42
2023-05-24T21:22:19.888Z,2.42
2023-05-24T21:24:46.330Z,2.40
2023-05-24T21:27:12.767Z,2.47
2023-05-24T21:29:41.230Z,2.28
2023-05-24T21:32:07.690Z,2.03
2023-05-24T21:34:34.080Z,2.10
2023-05-24T21:37:01.072Z,2.83
2023-05-24T21:39:27.547Z,1.88
2023-05-24T21:41:53.951Z,2.58
2023-05-24T21:44:20.449Z,2.13
2023-05-24T21:46:46.864Z,2.10
2023-05-24T21:49:13.340Z,1.95
2023-05-24T21:51:39.761Z,2.03
2023-05-24T21:54:06.263Z,2.00
2023-05-24T21:56:32.751Z,2.25
2023-05-24T21:58:59.152Z,2.10
2023-05-24T22:01:25.639Z,2.53
2023-05-24T22:03:52.164Z,1.92
2023-05-24T22:06:18.672Z,1.83
2023-05-24T22:08:45.049Z,2.00
2023-05-24T22:11:11.465Z,2.17
2023-05-24T22:13:38.167Z,2.00
2023-05-24T22:16:04.889Z,1.95
2023-05-24T22:18:31.357Z,2.17
2023-05-24T22:21:02.085Z,2.20
2023-05-24T22:23:28.601Z,2.00
2023-05-24T22:25:55.022Z,2.00
2023-05-24T22:28:21.543Z,2.17
2023-05-24T22:30:48.056Z,2.00
2023-05-24T22:33:14.588Z,1.65
2023-05-24T22:35:41.112Z,1.80
2023-05-24T22:38:07.792Z,1.88
2023-05-24T22:40:36.525Z,2.00
2023-05-24T22:43:02.930Z,1.88
2023-05-24T22:45:29.359Z,1.70
2023-05-24T22:47:58.338Z,1.90
2023-05-24T22:50:25.996Z,1.65
2023-05-24T22:52:53.656Z,1.77
2023-05-24T22:55:20.099Z,2.00
2023-05-24T22:57:46.452Z,1.88
2023-05-24T23:00:13.409Z,1.60
2023-05-24T23:02:39.841Z,2.05
2023-05-24T23:05:06.616Z,1.65
2023-05-24T23:07:33.125Z,1.98
2023-05-24T23:09:59.837Z,2.03
2023-05-24T23:12:26.398Z,1.80
2023-05-24T23:14:54.073Z,1.80
2023-05-24T23:17:23.628Z,1.80
2023-05-24T23:19:50.320Z,1.88
2023-05-24T23:22:19.789Z,1.70
2023-05-24T23:24:49.616Z,1.60
2023-05-24T23:27:16.188Z,1.98
2023-05-24T23:29:42.582Z,1.50
2023-05-24T23:32:09.625Z,1.42
2023-05-24T23:34:36.786Z,1.73
2023-05-24T23:37:04.256Z,1.55
2023-05-24T23:39:31.271Z,1.70
2023-05-24T23:41:57.855Z,1.63
2023-05-24T23:44:25.516Z,1.63
2023-05-24T23:46:52.469Z,1.60
2023-05-24T23:49:19.794Z,1.58
2023-05-24T23:51:46.369Z,1.52
2023-05-24T23:54:18.802Z,1.70
2023-05-24T23:56:45.236Z,1.60
2023-05-24T23:59:11.880Z,1.40
